Time;durP1;ratioP1;P1;durP2;ratioP2;P2;SDS_P1;SDS_P2;PMS_P1;PMS_P2;Temp;Humidity;BMP_temperature;BMP_pressure;BME280_temperature;BME280_humidity;BME280_pressure;Samples;Min_cycle;Max_cycle;Signal;HPM_P1;HPM_P2
2021/12/25 00:00:06;;;;;;;6.93;3.13;;;-8.70;99.90;;;;;;5052461;28;20192;-79
2021/12/25 00:02:34;;;;;;;10.50;3.40;;;-8.70;99.90;;;;;;5052440;28;20211;-79
2021/12/25 00:05:02;;;;;;;11.13;3.43;;;-8.70;99.90;;;;;;5052103;28;20193;-80
2021/12/25 00:07:40;;;;;;;12.50;4.53;;;-8.80;99.90;;;;;;5052424;28;20559;-80
2021/12/25 00:10:09;;;;;;;11.80;4.83;;;-8.80;99.90;;;;;;5052704;28;20645;-80
2021/12/25 00:12:36;;;;;;;11.93;4.60;;;-8.70;99.90;;;;;;5052244;28;20196;-79
2021/12/25 00:15:04;;;;;;;12.60;4.67;;;-8.80;99.90;;;;;;5052057;28;20290;-80
2021/12/25 00:17:32;;;;;;;12.40;5.20;;;-8.80;99.90;;;;;;5052151;28;20220;-79
2021/12/25 00:19:59;;;;;;;13.37;5.10;;;-8.80;99.90;;;;;;5052200;28;20197;-80
2021/12/25 00:22:26;;;;;;;11.80;4.73;;;-9.00;99.90;;;;;;5061352;28;20237;-80
2021/12/25 00:24:54;;;;;;;8.93;3.93;;;-9.00;99.90;;;;;;5072052;28;20196;-79
2021/12/25 00:27:41;;;;;;;14.43;5.27;;;-9.10;99.90;;;;;;5071917;28;20201;-80
2021/12/25 00:30:19;;;;;;;12.90;5.17;;;-9.20;99.90;;;;;;5072227;28;20181;-79
2021/12/25 00:32:54;;;;;;;13.90;5.83;;;-9.30;99.90;;;;;;5072273;28;20194;-79
2021/12/25 00:35:22;;;;;;;13.53;5.73;;;-9.30;99.90;;;;;;5072276;28;20183;-80
2021/12/25 00:37:50;;;;;;;11.63;4.60;;;-9.40;99.90;;;;;;5072018;28;20224;-80
2021/12/25 00:40:19;;;;;;;8.83;3.40;;;-9.40;99.90;;;;;;5072174;28;20192;-80
2021/12/25 00:42:46;;;;;;;6.03;2.50;;;-9.40;99.90;;;;;;5071896;28;20592;-80
2021/12/25 00:45:14;;;;;;;7.20;2.47;;;-9.30;99.90;;;;;;5071980;28;20192;-79
2021/12/25 00:47:41;;;;;;;7.43;2.10;;;-9.40;99.90;;;;;;5072205;28;20266;-81
2021/12/25 00:50:10;;;;;;;5.77;2.07;;;-9.40;99.90;;;;;;5072104;28;20237;-80
2021/12/25 00:52:37;;;;;;;4.50;2.23;;;-9.40;99.90;;;;;;5061611;28;20238;-79
2021/12/25 00:55:07;;;;;;;5.23;2.00;;;-9.40;99.90;;;;;;5051877;28;20196;-80
2021/12/25 00:57:54;;;;;;;6.73;2.30;;;-9.50;99.90;;;;;;5055413;28;20701;-79
2021/12/25 01:00:21;;;;;;;5.00;2.27;;;-9.40;99.90;;;;;;5055881;28;20234;-80
2021/12/25 01:02:48;;;;;;;6.50;2.43;;;-9.40;99.90;;;;;;5055324;28;20778;-79
2021/12/25 01:05:17;;;;;;;4.63;2.17;;;-9.30;99.90;;;;;;5055248;28;20530;-80
2021/12/25 01:07:44;;;;;;;6.67;2.70;;;-9.20;99.90;;;;;;5055834;28;20204;-79
2021/12/25 01:10:17;;;;;;;10.40;3.53;;;-9.20;99.90;;;;;;5055750;28;20246;-80
2021/12/25 01:12:56;;;;;;;6.70;2.67;;;-9.20;99.90;;;;;;5068692;28;20302;-80
2021/12/25 01:15:30;;;;;;;4.43;2.87;;;-9.20;99.90;;;;;;5075191;28;20223;-80
2021/12/25 01:21:02;;;;;;;10.93;3.30;;;-9.20;99.90;;;;;;5054823;28;20276;-80
2021/12/25 01:29:19;;;;;;;5.53;2.53;;;-9.20;99.90;;;;;;5059512;28;20195;-81
2021/12/25 01:31:55;;;;;;;5.90;2.60;;;-9.30;99.90;;;;;;5067189;28;20184;-80
2021/12/25 01:34:57;;;;;;;15.20;5.50;;;-9.40;99.90;;;;;;5055168;28;20267;-81
2021/12/25 01:37:36;;;;;;;19.13;5.47;;;-9.40;99.90;;;;;;5055130;28;20235;-80
2021/12/25 01:40:19;;;;;;;7.83;2.93;;;-9.50;99.90;;;;;;5055088;28;20219;-79
2021/12/25 01:48:18;;;;;;;8.83;3.70;;;-9.70;99.90;;;;;;5054747;28;20183;-80
2021/12/25 01:50:45;;;;;;;7.13;3.23;;;-9.80;99.90;;;;;;5054989;28;20192;-79
2021/12/25 01:53:13;;;;;;;8.83;4.20;;;-9.90;99.90;;;;;;5071484;28;20192;-80
2021/12/25 01:55:40;;;;;;;7.23;3.03;;;-9.90;99.90;;;;;;5074766;28;20249;-79
2021/12/25 01:58:08;;;;;;;4.33;2.13;;;-9.90;99.90;;;;;;5074652;28;20220;-80
2021/12/25 02:00:40;;;;;;;7.63;3.37;;;-10.00;99.90;;;;;;5074610;28;20196;-81
2021/12/25 02:03:10;;;;;;;8.23;2.33;;;-10.10;99.90;;;;;;5074356;28;20180;-80
2021/12/25 02:05:38;;;;;;;5.23;2.60;;;-10.10;99.90;;;;;;5074023;28;20722;-80
2021/12/25 02:08:05;;;;;;;8.70;2.97;;;-10.20;99.90;;;;;;5073849;28;20557;-79
2021/12/25 02:10:33;;;;;;;5.73;1.77;;;-10.30;99.90;;;;;;5074168;28;20199;-79
2021/12/25 02:13:01;;;;;;;3.27;1.90;;;-10.40;99.90;;;;;;5074490;28;20200;-80
2021/12/25 02:15:29;;;;;;;9.47;3.50;;;-10.50;99.90;;;;;;5073948;28;20231;-79
2021/12/25 02:18:08;;;;;;;6.27;3.27;;;-10.50;99.90;;;;;;5073992;28;20215;-80
2021/12/25 02:20:45;;;;;;;7.40;2.90;;;-10.60;99.90;;;;;;5073923;28;20537;-81
2021/12/25 02:23:16;;;;;;;12.27;3.23;;;-10.70;99.90;;;;;;5073915;28;20191;-79
2021/12/25 02:25:44;;;;;;;6.87;3.07;;;-10.70;99.90;;;;;;5074088;28;20184;-79
2021/12/25 02:28:13;;;;;;;9.37;3.27;;;-10.80;99.90;;;;;;5074242;28;20203;-80
2021/12/25 02:30:41;;;;;;;5.90;2.87;;;-10.80;99.90;;;;;;5063419;28;20193;-79
2021/12/25 02:33:09;;;;;;;7.03;3.10;;;-10.90;99.90;;;;;;5054005;28;20192;-80
2021/12/25 02:35:37;;;;;;;8.50;3.43;;;-10.70;99.90;;;;;;5053724;28;20196;-80
2021/12/25 02:38:06;;;;;;;5.93;2.13;;;-10.80;99.90;;;;;;5053877;28;20212;-79
2021/12/25 02:40:33;;;;;;;4.50;2.80;;;-11.10;99.90;;;;;;5053802;28;20192;-79
2021/12/25 02:43:00;;;;;;;2.13;1.50;;;-11.20;99.90;;;;;;5053899;28;20200;-80
2021/12/25 02:45:27;;;;;;;3.23;1.40;;;-11.20;99.90;;;;;;5053727;28;20223;-80
2021/12/25 02:48:07;;;;;;;2.90;1.37;;;-11.30;99.90;;;;;;5053667;28;20196;-80
2021/12/25 02:50:35;;;;;;;1.33;1.23;;;-11.40;99.90;;;;;;5053756;28;20192;-80
2021/12/25 02:53:06;;;;;;;5.73;2.77;;;-11.40;99.90;;;;;;5068899;28;20188;-80
2021/12/25 02:55:33;;;;;;;1.97;1.60;;;-11.40;99.90;;;;;;5073293;28;20181;-80
2021/12/25 02:58:00;;;;;;;4.27;1.70;;;-11.50;99.90;;;;;;5073460;28;20269;-81
2021/12/25 03:00:31;;;;;;;1.40;0.93;;;-11.50;99.90;;;;;;5073490;28;20188;-79
2021/12/25 03:03:00;;;;;;;1.13;1.03;;;-11.50;99.90;;;;;;5073085;28;20237;-80
2021/12/25 03:05:27;;;;;;;3.80;1.50;;;-11.50;99.90;;;;;;5073290;28;20227;-79
2021/12/25 03:07:54;;;;;;;6.23;3.10;;;-11.50;99.90;;;;;;5072915;28;20223;-79
2021/12/25 03:10:23;;;;;;;5.53;3.10;;;-11.50;99.90;;;;;;5073365;28;20261;-79
2021/12/25 03:12:54;;;;;;;7.70;2.80;;;-11.50;99.90;;;;;;5057082;28;20189;-79
2021/12/25 03:15:40;;;;;;;3.33;2.07;;;-11.50;99.90;;;;;;5053229;28;20224;-80
2021/12/25 03:18:08;;;;;;;2.10;1.37;;;-11.50;99.90;;;;;;5052353;28;20230;-79
2021/12/25 03:20:36;;;;;;;2.73;1.63;;;-11.40;99.90;;;;;;5052846;28;20193;-79
2021/12/25 03:23:03;;;;;;;4.00;2.53;;;-11.50;99.90;;;;;;5052975;28;20196;-80
2021/12/25 03:25:31;;;;;;;9.10;2.30;;;-11.50;99.90;;;;;;5053083;28;20189;-79
2021/12/25 03:27:59;;;;;;;4.07;2.30;;;-11.50;99.90;;;;;;5052740;28;20223;-80
2021/12/25 03:30:26;;;;;;;3.13;1.70;;;-11.60;99.90;;;;;;5052477;28;20252;-80
2021/12/25 03:32:55;;;;;;;9.77;3.77;;;-11.60;99.90;;;;;;5071231;28;20606;-79
2021/12/25 03:35:22;;;;;;;5.13;3.00;;;-11.70;99.90;;;;;;5072469;28;20194;-80
2021/12/25 03:37:49;;;;;;;11.50;3.97;;;-11.70;99.90;;;;;;5072536;28;20785;-79
2021/12/25 03:40:16;;;;;;;11.30;4.00;;;-11.70;99.90;;;;;;5072084;28;20238;-79
2021/12/25 03:42:44;;;;;;;7.47;4.37;;;-11.70;99.90;;;;;;5072373;28;20566;-79
2021/12/25 03:45:11;;;;;;;13.07;4.97;;;-11.80;99.90;;;;;;5072783;28;20605;-79
2021/12/25 03:47:40;;;;;;;11.60;3.67;;;-11.80;99.90;;;;;;5072784;28;20191;-80
2021/12/25 03:53:21;;;;;;;6.77;3.40;;;-11.80;99.90;;;;;;5072543;28;20298;-79
2021/12/25 03:58:34;;;;;;;14.97;5.43;;;-11.60;99.90;;;;;;5072389;28;20675;-79
2021/12/25 04:01:14;;;;;;;11.33;4.30;;;-11.80;99.90;;;;;;5069401;28;20237;-79
2021/12/25 04:03:47;;;;;;;11.13;5.53;;;-11.70;99.90;;;;;;5052509;28;20208;-79
2021/12/25 04:06:15;;;;;;;13.77;5.10;;;-11.90;99.90;;;;;;5052105;28;20181;-79
2021/12/25 04:08:45;;;;;;;8.37;3.97;;;-11.80;99.90;;;;;;5052374;28;20266;-80
2021/12/25 04:11:15;;;;;;;9.50;3.97;;;-11.70;99.90;;;;;;5068981;28;20200;-79
2021/12/25 04:13:43;;;;;;;7.30;3.03;;;-11.90;99.90;;;;;;5072652;28;20202;-80
2021/12/25 04:16:10;;;;;;;8.13;3.60;;;-11.90;99.90;;;;;;5072258;28;20619;-79
2021/12/25 04:18:38;;;;;;;8.40;2.63;;;-11.80;99.90;;;;;;5072207;28;20269;-79
2021/12/25 04:21:05;;;;;;;7.93;2.70;;;-11.70;99.90;;;;;;5072489;28;20257;-80
2021/12/25 04:23:32;;;;;;;6.17;2.60;;;-11.80;99.90;;;;;;5072269;28;20192;-80
2021/12/25 04:26:00;;;;;;;7.80;3.70;;;-11.80;99.90;;;;;;5072377;28;20196;-80
2021/12/25 04:28:37;;;;;;;11.33;4.03;;;-11.80;99.90;;;;;;5072239;28;20594;-81
2021/12/25 04:31:24;;;;;;;8.50;2.87;;;-11.70;99.90;;;;;;5072423;28;20188;-78
2021/12/25 04:48:01;;;;;;;7.50;3.17;;;-11.70;99.90;;;;;;5055855;28;20231;-81
2021/12/25 05:04:16;;;;;;;9.23;2.27;;;-11.10;99.90;;;;;;5055633;28;20538;-79
2021/12/25 05:06:43;;;;;;;5.93;2.13;;;-11.20;99.90;;;;;;5055714;28;20269;-80
2021/12/25 05:09:10;;;;;;;4.77;2.07;;;-11.00;99.90;;;;;;5055205;28;20203;-80
2021/12/25 05:11:37;;;;;;;6.60;2.03;;;-11.00;99.90;;;;;;5055506;28;20262;-79
2021/12/25 05:14:04;;;;;;;6.90;3.10;;;-11.20;99.90;;;;;;5055683;28;20238;-80
2021/12/25 05:16:31;;;;;;;6.03;2.53;;;-11.30;99.90;;;;;;5055540;28;20270;-79
2021/12/25 05:18:58;;;;;;;9.23;2.83;;;-11.30;99.90;;;;;;5055345;28;20246;-80
2021/12/25 05:21:27;;;;;;;5.33;2.70;;;-11.10;99.90;;;;;;5055377;28;20193;-80
2021/12/25 05:23:54;;;;;;;6.43;2.67;;;-11.10;99.90;;;;;;5055401;28;20193;-80
2021/12/25 05:26:21;;;;;;;6.10;2.60;;;-11.30;99.90;;;;;;5055194;28;20238;-80
2021/12/25 05:28:57;;;;;;;9.67;5.17;;;-11.20;99.90;;;;;;5055173;28;20197;-80
2021/12/25 05:31:24;;;;;;;6.87;3.13;;;-11.10;99.90;;;;;;5062876;28;20207;-80
2021/12/25 05:33:52;;;;;;;13.07;2.30;;;-11.00;99.90;;;;;;5075034;28;20200;-80
2021/12/25 05:36:19;;;;;;;4.57;2.43;;;-11.00;99.90;;;;;;5074968;28;20230;-80
2021/12/25 05:38:47;;;;;;;6.07;1.97;;;-10.90;99.90;;;;;;5074912;28;20280;-80
2021/12/25 05:41:15;;;;;;;5.70;2.10;;;-11.00;99.90;;;;;;5074259;28;20192;-80
2021/12/25 05:43:42;;;;;;;6.27;2.17;;;-10.90;99.90;;;;;;5074553;28;20583;-79
2021/12/25 05:46:09;;;;;;;5.10;2.40;;;-11.10;99.90;;;;;;5074607;28;20601;-79
2021/12/25 05:48:36;;;;;;;5.73;2.73;;;-11.20;99.90;;;;;;5074869;28;20253;-79
2021/12/25 05:51:04;;;;;;;4.83;2.23;;;-11.10;99.90;;;;;;5074901;28;20245;-79
2021/12/25 05:53:31;;;;;;;5.77;2.40;;;-11.00;99.90;;;;;;5074338;28;20241;-80
2021/12/25 05:56:02;;;;;;;5.13;2.13;;;-11.20;99.90;;;;;;5074954;28;20268;-80
2021/12/25 05:58:29;;;;;;;6.67;2.80;;;-11.30;99.90;;;;;;5074572;28;20257;-79
2021/12/25 06:00:56;;;;;;;7.43;2.43;;;-11.30;99.90;;;;;;5068164;28;20234;-80
2021/12/25 06:03:23;;;;;;;4.93;2.83;;;-11.10;99.90;;;;;;5054467;28;20247;-78
2021/12/25 06:05:50;;;;;;;5.07;2.73;;;-11.10;99.90;;;;;;5054637;28;20197;-79
2021/12/25 06:08:17;;;;;;;5.03;2.57;;;-11.40;99.90;;;;;;5054489;28;20196;-80
2021/12/25 06:10:45;;;;;;;3.50;1.97;;;-11.10;99.90;;;;;;5054742;28;20242;-79
2021/12/25 06:13:18;;;;;;;6.57;2.20;;;-11.30;99.90;;;;;;5054462;28;20204;-79
2021/12/25 06:15:45;;;;;;;4.97;2.50;;;-11.10;99.90;;;;;;5054397;28;20224;-78
2021/12/25 06:18:13;;;;;;;7.17;2.87;;;-11.30;99.90;;;;;;5054014;28;20220;-78
2021/12/25 06:20:40;;;;;;;119.10;42.17;;;-11.30;99.90;;;;;;5059890;28;20192;-80
2021/12/25 06:23:10;;;;;;;24.53;10.13;;;-11.30;99.90;;;;;;5073916;28;20529;-80
2021/12/25 06:25:37;;;;;;;10.87;4.83;;;-11.30;99.90;;;;;;5073772;28;20196;-80
2021/12/25 06:28:04;;;;;;;12.03;5.43;;;-11.30;99.90;;;;;;5073785;28;20648;-80
2021/12/25 06:30:33;;;;;;;10.53;5.50;;;-11.40;99.90;;;;;;5073932;28;20191;-80
2021/12/25 06:33:00;;;;;;;28.93;9.27;;;-11.50;99.90;;;;;;5073667;28;20675;-79
2021/12/25 06:35:32;;;;;;;64.20;17.50;;;-11.30;99.90;;;;;;5076034;28;20242;-80
2021/12/25 06:38:04;;;;;;;15.73;6.63;;;-11.60;99.90;;;;;;5096112;28;20228;-79
2021/12/25 06:40:38;;;;;;;8.87;4.17;;;-11.50;99.90;;;;;;5096524;28;20211;-79
2021/12/25 06:43:09;;;;;;;13.17;4.63;;;-11.70;99.90;;;;;;5096484;28;20195;-82
2021/12/25 06:45:42;;;;;;;10.80;4.17;;;-11.50;99.90;;;;;;5097416;28;20183;-81
2021/12/25 06:48:36;;;;;;;36.60;10.77;;;-11.70;99.90;;;;;;5097055;28;20181;-83
2021/12/25 06:51:13;;;;;;;42.27;12.07;;;-11.60;99.90;;;;;;5087942;28;20226;-80
2021/12/25 06:53:54;;;;;;;60.73;16.77;;;-11.80;99.90;;;;;;5095053;28;20192;-82
2021/12/25 06:56:43;;;;;;;111.10;26.40;;;-11.80;99.90;;;;;;5096360;28;20218;-78
2021/12/25 06:59:36;;;;;;;40.50;11.23;;;-11.60;99.90;;;;;;5095503;28;20195;-81
2021/12/25 07:02:18;;;;;;;58.93;14.47;;;-11.60;99.90;;;;;;5089429;28;20196;-81
2021/12/25 07:04:48;;;;;;;20.10;6.23;;;-11.60;99.90;;;;;;5086971;28;20192;-79
2021/12/25 07:07:32;;;;;;;20.20;5.37;;;-11.50;99.90;;;;;;5092209;28;20196;-79
2021/12/25 07:10:07;;;;;;;18.53;5.83;;;-11.50;99.90;;;;;;5083293;28;20192;-80
2021/12/25 07:18:19;;;;;;;4.93;2.17;;;-11.20;99.90;;;;;;5073804;28;20242;-79
2021/12/25 07:20:54;;;;;;;6.87;3.63;;;-11.30;99.90;;;;;;5075712;28;20212;-79
2021/12/25 07:23:41;;;;;;;12.30;6.03;;;-11.40;99.90;;;;;;5075043;28;20203;-81
2021/12/25 07:26:16;;;;;;;15.13;6.23;;;-11.40;99.90;;;;;;5074798;28;20181;-79
2021/12/25 07:29:02;;;;;;;12.97;7.10;;;-11.20;99.90;;;;;;5075125;28;20185;-79
2021/12/25 07:31:51;;;;;;;15.80;6.33;;;-11.10;99.90;;;;;;5081164;28;20184;-81
2021/12/25 07:34:40;;;;;;;18.63;8.43;;;-11.10;99.90;;;;;;5095814;28;20211;-80
2021/12/25 07:37:28;;;;;;;26.43;11.67;;;-11.00;99.90;;;;;;5092933;28;20212;-81
2021/12/25 07:39:55;;;;;;;41.43;14.53;;;-11.10;99.90;;;;;;5083854;28;20212;-79
2021/12/25 07:42:22;;;;;;;48.97;16.97;;;-10.90;99.90;;;;;;5066511;28;20200;-79
2021/12/25 07:45:07;;;;;;;38.87;14.37;;;-10.90;99.90;;;;;;5073742;28;20226;-79
2021/12/25 07:47:35;;;;;;;29.10;11.37;;;-11.00;99.90;;;;;;5074678;28;20192;-80
2021/12/25 07:50:24;;;;;;;22.77;10.43;;;-10.80;99.90;;;;;;5069923;28;20206;-79
2021/12/25 07:52:51;;;;;;;26.33;11.33;;;-10.60;99.90;;;;;;5065710;28;20220;-79
2021/12/25 07:55:18;;;;;;;29.33;12.43;;;-10.80;99.90;;;;;;5052478;28;20193;-79
2021/12/25 07:57:45;;;;;;;33.30;14.07;;;-10.70;99.90;;;;;;5052316;28;20199;-79
2021/12/25 08:00:15;;;;;;;48.63;15.37;;;-10.60;99.90;;;;;;5052592;28;20311;-79
2021/12/25 08:02:44;;;;;;;48.50;16.63;;;-10.40;99.90;;;;;;5053431;28;20188;-78
2021/12/25 08:05:13;;;;;;;54.33;20.07;;;-10.50;99.90;;;;;;5052106;28;20211;-79
2021/12/25 08:07:40;;;;;;;100.47;28.53;;;-10.40;99.90;;;;;;5052331;28;20269;-79
2021/12/25 08:10:17;;;;;;;121.63;32.27;;;-10.40;99.90;;;;;;5052470;28;20196;-78
2021/12/25 08:12:46;;;;;;;45.50;17.47;;;-10.20;99.90;;;;;;5052115;28;20177;-79
2021/12/25 08:15:14;;;;;;;254.33;59.43;;;-10.20;99.90;;;;;;5051967;28;20259;-79
2021/12/25 08:17:42;;;;;;;159.07;42.97;;;-10.00;99.90;;;;;;5052327;28;20192;-79
2021/12/25 08:20:10;;;;;;;109.80;32.40;;;-9.80;99.90;;;;;;5052308;28;20266;-78
2021/12/25 08:22:39;;;;;;;175.00;44.93;;;-9.80;99.90;;;;;;5052190;28;20197;-78
2021/12/25 08:25:07;;;;;;;157.03;38.67;;;-9.80;99.90;;;;;;5052315;28;20193;-79
2021/12/25 08:27:34;;;;;;;162.30;37.17;;;-9.50;99.90;;;;;;5059729;28;20198;-78
2021/12/25 08:30:17;;;;;;;153.07;36.43;;;-9.50;99.90;;;;;;5072070;28;20252;-79
2021/12/25 08:32:44;;;;;;;166.47;45.40;;;-9.40;99.90;;;;;;5057055;28;20200;-78
2021/12/25 08:35:14;;;;;;;137.27;41.07;;;-9.30;99.90;;;;;;5051816;28;20196;-79
2021/12/25 08:37:43;;;;;;;144.10;36.50;;;-9.20;99.90;;;;;;5052201;28;20260;-78
2021/12/25 08:40:14;;;;;;;135.97;35.83;;;-8.90;99.90;;;;;;5051995;28;20217;-79
2021/12/25 08:42:46;;;;;;;128.10;33.17;;;-8.80;99.90;;;;;;5051670;28;20231;-78
2021/12/25 08:45:39;;;;;;;96.37;28.90;;;-8.80;99.90;;;;;;5052189;28;20185;-78
2021/12/25 08:48:03;;;;;;;72.60;24.97;;;-8.60;99.90;;;;;;5051872;28;20193;-79
2021/12/25 08:50:30;;;;;;;53.57;21.80;;;-8.40;99.90;;;;;;5051978;28;20192;-78
2021/12/25 08:52:58;;;;;;;57.77;20.90;;;-8.30;99.90;;;;;;5052041;28;20200;-78
2021/12/25 08:55:25;;;;;;;82.77;26.97;;;-8.20;99.90;;;;;;5051936;28;20671;-78
2021/12/25 08:58:00;;;;;;;75.80;27.83;;;-7.90;99.90;;;;;;5051884;28;20196;-78
2021/12/25 09:00:30;;;;;;;64.43;25.53;;;-7.70;99.90;;;;;;5051641;28;20223;-79
2021/12/25 09:03:02;;;;;;;59.43;23.13;;;-7.30;99.90;;;;;;5071562;28;20277;-78
2021/12/25 09:05:32;;;;;;;60.63;24.53;;;;;;;;;;5071551;28;20186;-79
2021/12/25 09:08:23;;;;;;;76.47;30.07;;;-6.30;99.90;;;;;;5071252;28;20657;-78
2021/12/25 09:11:00;;;;;;;47.70;23.37;;;-5.40;99.90;;;;;;5053000;28;20177;-77
2021/12/25 09:13:39;;;;;;;56.43;25.67;;;-4.40;99.90;;;;;;5051481;28;20250;-77
2021/12/25 09:16:35;;;;;;;49.83;23.03;;;-3.60;99.90;;;;;;5051896;28;20290;-77
2021/12/25 09:19:04;;;;;;;52.87;26.50;;;-2.80;99.90;;;;;;5051383;28;20220;-77
2021/12/25 09:22:04;;;;;;;75.53;34.20;;;-2.30;99.90;;;;;;5055311;28;20192;-78
2021/12/25 09:24:46;;;;;;;48.17;22.13;;;-2.00;99.90;;;;;;5054981;28;20637;-78
2021/12/25 09:27:32;;;;;;;58.80;25.80;;;-1.50;99.90;;;;;;5069841;28;20184;-78
2021/12/25 09:30:07;;;;;;;44.93;19.47;;;-1.20;99.90;;;;;;5074425;28;20196;-77
2021/12/25 09:32:40;;;;;;;35.10;14.73;;;-1.10;99.90;;;;;;5074384;28;20183;-77
2021/12/25 09:35:08;;;;;;;38.77;16.00;;;-1.00;99.90;;;;;;5075123;28;20181;-77
2021/12/25 09:37:41;;;;;;;39.83;19.53;;;-1.10;99.90;;;;;;5074893;28;20253;-77
2021/12/25 09:40:11;;;;;;;47.00;23.67;;;-1.00;99.90;;;;;;5073347;28;20211;-78
2021/12/25 09:42:40;;;;;;;52.67;25.40;;;-1.10;99.90;;;;;;5074825;28;20241;-78
2021/12/25 09:45:08;;;;;;;51.63;24.17;;;-0.90;99.90;;;;;;5075103;28;20193;-78
2021/12/25 09:47:35;;;;;;;50.13;23.27;;;-0.60;99.90;;;;;;5075287;28;20234;-78
2021/12/25 09:50:11;;;;;;;55.23;26.50;;;-0.40;99.90;;;;;;5074807;28;20537;-78
2021/12/25 09:52:42;;;;;;;69.17;30.30;;;-0.40;99.90;;;;;;5073591;28;20289;-78
2021/12/25 09:55:12;;;;;;;77.30;32.10;;;-0.40;99.90;;;;;;5074552;28;20202;-78
2021/12/25 09:57:39;;;;;;;69.50;33.27;;;-0.40;99.90;;;;;;5074769;28;20295;-78
2021/12/25 10:00:29;;;;;;;74.47;32.90;;;-0.40;99.90;;;;;;5074527;28;20277;-78
2021/12/25 10:02:58;;;;;;;60.77;28.47;;;-0.40;99.90;;;;;;5068637;28;20633;-78
2021/12/25 10:05:28;;;;;;;55.20;25.20;;;-0.50;99.90;;;;;;5074278;28;20199;-78
2021/12/25 10:08:07;;;;;;;46.17;21.47;;;-0.70;99.90;;;;;;5074761;28;20188;-78
2021/12/25 10:10:46;;;;;;;41.17;20.30;;;-0.90;99.90;;;;;;5070273;28;20701;-77
2021/12/25 10:13:32;;;;;;;51.03;22.97;;;-1.10;99.90;;;;;;5054530;28;20185;-78
2021/12/25 10:16:18;;;;;;;48.17;24.53;;;-1.30;99.90;;;;;;5070883;28;20228;-77
2021/12/25 10:18:46;;;;;;;47.77;21.93;;;-1.30;99.90;;;;;;5074238;28;20176;-77
2021/12/25 10:21:21;;;;;;;48.57;23.10;;;-1.40;99.90;;;;;;5073378;28;20253;-77
2021/12/25 10:24:05;;;;;;;45.73;22.97;;;-1.50;99.90;;;;;;5073111;28;20192;-77
2021/12/25 10:26:40;;;;;;;31.83;14.70;;;-1.60;99.90;;;;;;5073796;28;20191;-77
2021/12/25 10:29:23;;;;;;;36.00;16.13;;;-1.80;99.90;;;;;;5074185;28;20191;-78
2021/12/25 10:31:52;;;;;;;42.23;20.50;;;-2.00;99.90;;;;;;5071480;28;20180;-77
2021/12/25 10:34:22;;;;;;;46.00;20.60;;;-2.10;99.90;;;;;;5054049;28;20222;-77
2021/12/25 10:36:49;;;;;;;64.50;26.97;;;-2.30;99.90;;;;;;5071302;28;20188;-78
2021/12/25 10:39:19;;;;;;;73.03;30.67;;;-2.40;99.90;;;;;;5073938;28;20266;-77
2021/12/25 10:41:55;;;;;;;59.10;26.33;;;-2.40;99.90;;;;;;5073859;28;20253;-77
2021/12/25 10:44:24;;;;;;;48.20;21.33;;;-2.50;99.90;;;;;;5073482;28;20685;-78
2021/12/25 10:46:54;;;;;;;42.07;17.20;;;-2.60;99.90;;;;;;5073375;28;20714;-78
2021/12/25 10:49:22;;;;;;;34.40;15.77;;;-2.60;99.90;;;;;;5073420;28;20672;-77
2021/12/25 10:51:50;;;;;;;34.97;17.57;;;-2.60;99.90;;;;;;5073272;28;20188;-77
2021/12/25 10:54:18;;;;;;;32.13;15.70;;;-2.60;99.90;;;;;;5073222;28;20238;-77
2021/12/25 10:56:48;;;;;;;28.03;12.73;;;-2.60;99.90;;;;;;5073490;28;20196;-77
2021/12/25 10:59:23;;;;;;;25.27;12.10;;;-2.50;99.90;;;;;;5073511;28;20308;-78
2021/12/25 11:01:52;;;;;;;28.20;12.27;;;-2.50;99.90;;;;;;5061760;28;20626;-78
2021/12/25 11:04:30;;;;;;;35.83;15.13;;;-2.50;99.90;;;;;;5053404;28;20575;-77
2021/12/25 11:06:59;;;;;;;36.43;16.83;;;-2.50;99.90;;;;;;5053347;28;20224;-78
2021/12/25 11:09:29;;;;;;;32.47;15.03;;;-2.50;99.90;;;;;;5053115;28;20246;-78
2021/12/25 11:12:21;;;;;;;31.23;16.17;;;-2.50;99.90;;;;;;5053362;28;20196;-78
2021/12/25 11:14:49;;;;;;;43.23;21.43;;;-2.40;1.00;;;;;;5052923;28;20238;-78
2021/12/25 11:17:33;;;;;;;47.47;21.57;;;-2.40;1.00;;;;;;5053302;28;20281;-78
2021/12/25 11:20:08;;;;;;;49.87;23.50;;;-2.40;1.00;;;;;;5052784;28;20548;-78
2021/12/25 11:22:48;;;;;;;55.83;26.73;;;-2.30;1.00;;;;;;5052806;28;20184;-78
2021/12/25 11:25:17;;;;;;;41.23;22.27;;;-2.30;1.00;;;;;;5053053;28;20246;-78
2021/12/25 11:27:54;;;;;;;47.70;19.70;;;-2.30;1.00;;;;;;5053055;28;20630;-78
2021/12/25 11:30:28;;;;;;;36.87;17.57;;;-2.20;1.00;;;;;;5053693;28;20208;-78
2021/12/25 11:32:59;;;;;;;30.83;12.93;;;-2.20;1.00;;;;;;5069728;28;20180;-78
2021/12/25 11:35:27;;;;;;;27.73;12.53;;;-2.10;1.00;;;;;;5072510;28;20180;-78
2021/12/25 11:37:58;;;;;;;19.13;10.30;;;-2.10;1.00;;;;;;5072364;28;20225;-79
2021/12/25 11:40:27;;;;;;;20.83;9.43;;;-2.00;98.70;;;;;;5072129;28;20276;-78
2021/12/25 11:43:00;;;;;;;38.50;16.33;;;-2.00;90.60;;;;;;5072386;28;20653;-79
2021/12/25 11:45:32;;;;;;;27.57;13.07;;;-2.10;1.00;;;;;;5072841;28;20184;-78
2021/12/25 11:48:01;;;;;;;16.10;8.00;;;-2.10;1.00;;;;;;5072026;28;20184;-78
2021/12/25 11:50:40;;;;;;;17.37;7.60;;;-2.20;1.00;;;;;;5072734;28;20245;-78
2021/12/25 11:53:15;;;;;;;19.27;8.03;;;-2.20;1.00;;;;;;5072412;28;20253;-78
2021/12/25 11:58:43;;;;;;;44.40;20.93;;;-2.30;22.50;;;;;;5068622;28;20224;-78
2021/12/25 12:01:25;;;;;;;59.23;26.80;;;-2.30;95.30;;;;;;5066334;28;20235;-78
2021/12/25 12:03:56;;;;;;;56.23;24.57;;;-2.40;99.90;;;;;;5053330;28;20181;-78
2021/12/25 12:07:02;;;;;;;51.83;21.93;;;-2.50;99.90;;;;;;5070760;28;20199;-79
2021/12/25 12:09:33;;;;;;;56.43;25.10;;;-2.50;99.90;;;;;;5066455;28;20203;-78
2021/12/25 12:12:16;;;;;;;87.27;34.00;;;-2.60;99.90;;;;;;5071948;28;20593;-78
2021/12/25 12:14:43;;;;;;;78.10;32.60;;;-2.60;99.90;;;;;;5061918;28;20188;-78
2021/12/25 12:17:28;;;;;;;75.00;33.80;;;-2.70;99.90;;;;;;5072523;28;20253;-78
2021/12/25 12:19:56;;;;;;;67.97;29.33;;;-2.70;99.90;;;;;;5071671;28;20679;-79
2021/12/25 12:25:29;;;;;;;60.87;26.13;;;-2.70;99.90;;;;;;5069882;28;20184;-78
2021/12/25 12:27:58;;;;;;;56.90;27.13;;;-2.70;99.90;;;;;;5071990;28;20226;-78
2021/12/25 12:30:46;;;;;;;51.13;24.53;;;-2.70;99.90;;;;;;5071847;28;20253;-78
2021/12/25 12:33:36;;;;;;;51.40;25.63;;;-2.70;99.90;;;;;;5053475;28;20319;-78
2021/12/25 12:36:20;;;;;;;62.03;29.80;;;-2.70;99.90;;;;;;5052290;28;20185;-78
2021/12/25 12:38:51;;;;;;;89.43;37.73;;;-2.70;99.90;;;;;;5065029;28;20215;-78
2021/12/25 12:41:25;;;;;;;83.17;34.80;;;-2.70;99.90;;;;;;5072231;28;20211;-78
2021/12/25 12:44:03;;;;;;;79.33;36.50;;;-2.70;99.90;;;;;;5072049;28;20191;-78
2021/12/25 12:46:58;;;;;;;61.53;28.27;;;-2.70;99.90;;;;;;5072169;28;20187;-77
2021/12/25 12:49:28;;;;;;;52.97;23.77;;;-2.60;99.90;;;;;;5072099;28;20188;-78
2021/12/25 12:52:23;;;;;;;21.67;11.27;;;-2.70;99.90;;;;;;5075472;28;20184;-78
2021/12/25 12:54:53;;;;;;;106.40;39.47;;;-2.70;99.90;;;;;;5071283;28;20669;-77
2021/12/25 12:57:26;;;;;;;119.37;47.60;;;-2.80;99.90;;;;;;5075765;28;20574;-77
2021/12/25 13:00:03;;;;;;;107.07;42.47;;;-2.90;99.90;;;;;;5076073;28;20243;-77
2021/12/25 13:02:39;;;;;;;96.20;33.30;;;-3.00;99.90;;;;;;5063487;28;20184;-77
2021/12/25 13:05:19;;;;;;;72.40;28.50;;;-3.00;99.90;;;;;;5055727;28;20185;-77
2021/12/25 13:07:52;;;;;;;61.87;26.13;;;-3.10;99.90;;;;;;5061448;28;20198;-78
2021/12/25 13:10:24;;;;;;;57.57;23.63;;;-3.10;99.90;;;;;;5073282;28;20750;-77
2021/12/25 13:12:56;;;;;;;57.13;24.00;;;-3.10;99.90;;;;;;5075250;28;20226;-78
2021/12/25 13:15:27;;;;;;;53.90;23.33;;;-3.20;99.90;;;;;;5075487;28;20281;-78
2021/12/25 13:17:56;;;;;;;56.60;23.30;;;-3.20;99.90;;;;;;5075340;28;20649;-78
2021/12/25 13:20:38;;;;;;;69.57;28.07;;;-3.30;99.90;;;;;;5075376;28;20211;-77
2021/12/25 13:23:07;;;;;;;64.47;26.17;;;-3.30;99.90;;;;;;5075405;28;20180;-78
2021/12/25 13:25:35;;;;;;;63.97;22.77;;;-3.30;99.90;;;;;;5075352;28;20192;-77
2021/12/25 13:28:05;;;;;;;70.33;28.17;;;-3.40;99.90;;;;;;5075167;28;20191;-77
2021/12/25 13:30:34;;;;;;;60.77;22.57;;;-3.40;99.90;;;;;;5074893;28;20196;-77
2021/12/25 13:33:08;;;;;;;53.07;23.57;;;-3.50;99.90;;;;;;5055888;28;20193;-77
2021/12/25 13:35:38;;;;;;;56.03;25.23;;;-3.60;99.90;;;;;;5054876;28;20184;-77
2021/12/25 13:38:05;;;;;;;59.50;27.43;;;-3.60;99.90;;;;;;5055182;28;20275;-77
2021/12/25 13:40:33;;;;;;;58.17;28.90;;;-3.70;99.90;;;;;;5054667;28;20308;-77
2021/12/25 13:43:09;;;;;;;69.20;32.60;;;-3.70;99.90;;;;;;5054983;28;20203;-77
2021/12/25 13:45:38;;;;;;;69.07;32.60;;;-3.80;99.90;;;;;;5054681;28;20699;-77
2021/12/25 13:48:06;;;;;;;62.50;28.83;;;-3.80;99.90;;;;;;5054919;28;20196;-77
2021/12/25 13:50:35;;;;;;;52.60;25.00;;;-3.90;99.90;;;;;;5054870;28;20262;-77
2021/12/25 13:53:10;;;;;;;54.07;23.70;;;-3.90;99.90;;;;;;5054512;28;20661;-77
2021/12/25 13:55:38;;;;;;;71.33;32.63;;;-4.10;99.90;;;;;;5054736;28;20218;-77